Time;durP1;ratioP1;P1;durP2;ratioP2;P2;SDS_P1;SDS_P2;PMS_P1;PMS_P2;Temp;Humidity;BMP_temperature;BMP_pressure;BME280_temperature;BME280_humidity;BME280_pressure;Samples;Min_cycle;Max_cycle;Signal;HPM_P1;HPM_P2
2024/01/04 00:02:16;;;;;;;4.20;1.83;;;8.30;99.90;;;7.30;100.00;98275.25;5053131;28;20230;-74
2024/01/04 00:04:46;;;;;;;2.40;1.20;;;8.20;99.90;;;7.30;100.00;98275.25;5053027;28;20218;-74
2024/01/04 00:07:15;;;;;;;2.47;1.20;;;8.20;99.90;;;7.28;100.00;98285.28;5053355;28;20206;-74
2024/01/04 00:09:43;;;;;;;3.30;1.37;;;8.30;99.90;;;7.27;100.00;98285.47;5053127;28;20260;-74
2024/01/04 00:12:11;;;;;;;3.03;1.33;;;8.20;99.90;;;7.29;100.00;98286.94;5053057;28;20308;-74
2024/01/04 00:14:39;;;;;;;3.67;1.17;;;8.20;99.90;;;7.23;100.00;98287.69;5053144;28;20214;-74
2024/01/04 00:17:07;;;;;;;1.63;1.03;;;8.20;99.90;;;7.28;100.00;98284.47;5052802;28;20638;-74
2024/01/04 00:19:35;;;;;;;1.77;1.30;;;8.20;99.90;;;7.24;100.00;98285.88;5053111;28;20241;-74
2024/01/04 00:22:05;;;;;;;1.87;1.30;;;8.10;99.90;;;7.25;100.00;98288.34;5055624;28;20222;-74
2024/01/04 00:24:33;;;;;;;3.40;1.80;;;8.10;99.90;;;7.21;100.00;98283.59;5056804;28;20238;-74
2024/01/04 00:27:01;;;;;;;2.83;1.40;;;8.10;99.90;;;7.21;100.00;98284.44;5056704;28;20214;-74
2024/01/04 00:29:30;;;;;;;2.20;1.13;;;8.10;99.90;;;7.17;100.00;98287.69;5056767;28;20202;-73
2024/01/04 00:31:58;;;;;;;1.80;1.10;;;8.10;99.90;;;7.14;100.00;98286.25;5056563;28;20231;-74
2024/01/04 00:34:26;;;;;;;3.27;1.20;;;8.00;99.90;;;7.13;100.00;98289.91;5056609;28;20309;-73
2024/01/04 00:36:55;;;;;;;2.53;1.30;;;8.10;99.90;;;7.14;100.00;98299.53;5056401;28;20237;-73
2024/01/04 00:39:25;;;;;;;2.33;1.60;;;8.00;99.90;;;7.13;100.00;98300.56;5056572;28;20212;-73
2024/01/04 00:41:53;;;;;;;3.33;1.63;;;8.10;99.90;;;7.09;100.00;98301.97;5056124;28;20673;-73
2024/01/04 00:44:21;;;;;;;4.63;1.70;;;8.10;99.90;;;7.07;100.00;98301.34;5056049;28;20675;-73
2024/01/04 00:46:50;;;;;;;3.10;1.73;;;7.90;99.90;;;7.03;100.00;98303.59;5056317;28;20202;-73
2024/01/04 00:49:19;;;;;;;4.67;1.83;;;7.90;99.90;;;7.05;100.00;98312.19;5056281;28;20297;-73
2024/01/04 00:51:48;;;;;;;3.70;1.77;;;7.90;99.90;;;7.08;100.00;98311.81;5056228;28;20226;-73
2024/01/04 00:54:16;;;;;;;4.40;2.03;;;8.10;99.90;;;7.11;100.00;98305.25;5056094;28;20245;-73
2024/01/04 00:56:45;;;;;;;2.90;1.83;;;8.00;99.90;;;7.10;100.00;98312.41;5056144;28;20226;-73
2024/01/04 00:59:13;;;;;;;4.77;2.10;;;8.00;99.90;;;7.13;100.00;98304.03;5055836;28;20675;-73
2024/01/04 01:01:42;;;;;;;3.50;1.80;;;8.00;99.90;;;7.15;100.00;98306.53;5056238;28;20280;-73
2024/01/04 01:04:10;;;;;;;4.67;2.13;;;8.00;99.90;;;7.11;100.00;98322.06;5056082;28;20293;-73
2024/01/04 01:06:38;;;;;;;4.27;2.63;;;8.00;99.90;;;7.12;100.00;98314.91;5055949;28;20256;-73
2024/01/04 01:09:06;;;;;;;3.23;1.83;;;8.10;99.90;;;7.13;100.00;98324.50;5055905;28;20210;-73
2024/01/04 01:11:34;;;;;;;2.83;2.00;;;8.00;99.90;;;7.09;100.00;98324.06;5055927;28;20206;-73
2024/01/04 01:14:04;;;;;;;5.30;2.30;;;8.10;99.90;;;7.12;100.00;98320.22;5055838;28;20229;-73
2024/01/04 01:16:32;;;;;;;4.30;2.43;;;8.10;99.90;;;7.10;100.00;98319.56;5055424;28;20578;-73
2024/01/04 01:19:00;;;;;;;5.13;2.40;;;8.10;99.90;;;7.10;100.00;98325.72;5055935;28;20297;-73
2024/01/04 01:21:29;;;;;;;3.93;2.73;;;8.10;99.90;;;7.10;100.00;98328.38;5055332;28;20676;-73
2024/01/04 01:23:57;;;;;;;7.30;2.83;;;8.00;99.90;;;7.11;100.00;98337.19;5055735;28;20202;-73
2024/01/04 01:26:25;;;;;;;5.67;2.83;;;8.00;99.90;;;7.10;100.00;98332.88;5055823;28;20210;-73
2024/01/04 01:28:53;;;;;;;6.70;2.87;;;8.10;99.90;;;7.09;100.00;98342.69;5055708;28;20301;-73
2024/01/04 01:31:23;;;;;;;5.37;2.87;;;8.00;99.90;;;7.13;100.00;98340.47;5055257;28;20662;-73
2024/01/04 01:33:51;;;;;;;5.40;2.83;;;8.10;99.90;;;7.13;100.00;98345.78;5055249;28;20218;-73
2024/01/04 01:36:19;;;;;;;4.30;3.00;;;8.10;99.90;;;7.12;100.00;98349.50;5055213;28;20278;-73
2024/01/04 01:38:47;;;;;;;4.60;2.87;;;8.20;99.90;;;7.12;100.00;98349.50;5055305;28;20240;-73
2024/01/04 01:41:15;;;;;;;5.87;3.10;;;8.10;99.90;;;7.14;100.00;98352.75;5055374;28;20213;-73
2024/01/04 01:43:44;;;;;;;5.80;3.10;;;8.10;99.90;;;7.11;100.00;98353.97;5055337;28;20644;-73
2024/01/04 01:46:12;;;;;;;5.00;2.43;;;8.00;99.90;;;7.10;100.00;98368.28;5055364;28;20558;-73
2024/01/04 01:48:42;;;;;;;3.33;2.50;;;8.00;99.90;;;7.10;100.00;98367.47;5055195;28;20210;-73
2024/01/04 01:51:13;;;;;;;4.10;2.90;;;8.10;99.90;;;7.09;100.00;98368.47;5054961;28;20670;-73
2024/01/04 01:53:42;;;;;;;4.33;2.80;;;8.00;99.90;;;7.10;100.00;98362.16;5054903;28;20715;-73
2024/01/04 01:56:11;;;;;;;3.03;2.30;;;8.00;99.90;;;7.07;100.00;98367.88;5055041;28;20206;-72
2024/01/04 01:58:39;;;;;;;4.87;2.40;;;8.10;99.90;;;7.07;100.00;98367.88;5054626;28;20678;-73
2024/01/04 02:01:07;;;;;;;4.40;2.60;;;8.00;99.90;;;7.05;100.00;98376.03;5054999;28;20300;-73
2024/01/04 02:03:36;;;;;;;4.37;2.53;;;8.00;99.90;;;7.03;100.00;98377.25;5054851;28;20230;-73
2024/01/04 02:06:06;;;;;;;4.90;2.30;;;8.00;99.90;;;7.03;100.00;98382.56;5054681;28;20573;-73
2024/01/04 02:08:35;;;;;;;5.37;2.13;;;8.00;99.90;;;7.02;100.00;98378.28;5054604;28;20716;-73
2024/01/04 02:11:03;;;;;;;4.93;2.40;;;7.90;99.90;;;7.00;100.00;98380.31;5054902;28;20264;-73
2024/01/04 02:13:31;;;;;;;5.13;2.63;;;7.90;99.90;;;7.00;100.00;98388.28;5054671;28;20312;-73
2024/01/04 02:15:59;;;;;;;3.27;2.40;;;8.00;99.90;;;7.00;100.00;98390.94;5054647;28;20218;-73
2024/01/04 02:18:28;;;;;;;3.33;2.20;;;7.90;99.90;;;6.99;100.00;98394.59;5054594;28;20240;-73
2024/01/04 02:20:59;;;;;;;4.30;2.47;;;7.90;99.90;;;7.00;100.00;98394.44;5054359;28;20239;-73
2024/01/04 02:23:29;;;;;;;6.17;2.60;;;7.90;99.90;;;7.02;100.00;98412.88;5054664;28;20226;-73
2024/01/04 02:25:57;;;;;;;5.07;2.40;;;7.90;99.90;;;7.02;100.00;98413.66;5054590;28;20210;-73
2024/01/04 02:28:25;;;;;;;5.30;2.40;;;7.90;99.90;;;7.02;100.00;98413.66;5054448;28;20251;-73
2024/01/04 02:30:54;;;;;;;4.33;2.10;;;8.00;99.90;;;7.03;100.00;98417.16;5054464;28;20202;-73
2024/01/04 02:33:22;;;;;;;3.07;1.93;;;7.90;99.90;;;7.00;100.00;98421.03;5054268;28;20230;-73
2024/01/04 02:35:51;;;;;;;6.00;2.10;;;7.90;99.90;;;7.00;100.00;98434.34;5054105;28;20210;-73
2024/01/04 02:38:19;;;;;;;5.63;2.10;;;8.00;99.90;;;7.01;100.00;98440.47;5053835;28;20636;-73
2024/01/04 02:40:48;;;;;;;6.60;2.10;;;8.00;99.90;;;7.02;100.00;98439.47;5054369;28;20290;-73
2024/01/04 02:43:17;;;;;;;2.63;1.80;;;8.00;99.90;;;6.97;100.00;98436.56;5053775;28;20222;-73
2024/01/04 02:45:45;;;;;;;6.87;2.30;;;7.90;99.90;;;6.93;100.00;98437.94;5054086;28;20237;-73
2024/01/04 02:48:13;;;;;;;3.67;1.87;;;7.90;99.90;;;6.96;100.00;98440.22;5054128;28;20288;-73
2024/01/04 02:50:41;;;;;;;5.27;2.23;;;7.80;99.90;;;6.98;100.00;98448.84;5054010;28;20202;-73
2024/01/04 02:53:09;;;;;;;3.80;2.10;;;7.90;99.90;;;6.94;100.00;98442.25;5053947;28;20229;-73
2024/01/04 02:55:38;;;;;;;3.43;2.20;;;7.90;99.90;;;6.95;100.00;98454.56;5053964;28;20372;-73
2024/01/04 02:58:07;;;;;;;4.20;1.93;;;7.90;99.90;;;6.93;100.00;98460.06;5053835;28;20292;-73
2024/01/04 03:00:35;;;;;;;3.00;1.90;;;7.90;99.90;;;6.97;100.00;98458.66;5053728;28;20667;-74
2024/01/04 03:03:04;;;;;;;3.50;2.30;;;7.90;99.90;;;6.94;100.00;98468.88;5053758;28;20234;-74
2024/01/04 03:05:32;;;;;;;2.30;2.10;;;7.80;99.90;;;6.94;100.00;98464.38;5053780;28;20214;-73
2024/01/04 03:08:01;;;;;;;2.43;2.23;;;7.90;99.90;;;6.95;100.00;98466.00;5053782;28;20202;-73
2024/01/04 03:10:29;;;;;;;3.70;2.40;;;7.90;99.90;;;6.97;100.00;98473.78;5053709;28;20205;-73
2024/01/04 03:12:57;;;;;;;2.60;2.23;;;8.00;99.90;;;6.94;100.00;98480.34;5053688;28;20254;-73
2024/01/04 03:15:27;;;;;;;2.50;2.00;;;8.00;99.90;;;6.95;100.00;98483.81;5053366;28;20249;-73
2024/01/04 03:17:55;;;;;;;2.47;2.10;;;7.90;99.90;;;6.92;100.00;98481.50;5053607;28;20265;-73
2024/01/04 03:20:24;;;;;;;2.53;2.00;;;7.90;99.90;;;6.94;100.00;98490.97;5054369;28;20615;-73
2024/01/04 03:22:52;;;;;;;2.47;2.10;;;7.80;99.90;;;6.95;100.00;98486.47;5053470;28;20308;-73
2024/01/04 03:25:20;;;;;;;5.30;2.20;;;7.90;99.90;;;6.95;100.00;98502.44;5053533;28;20209;-73
2024/01/04 03:27:48;;;;;;;2.23;1.80;;;8.00;99.90;;;6.91;100.00;98501.16;5053587;28;20228;-73
2024/01/04 03:30:17;;;;;;;2.27;1.87;;;7.90;99.90;;;6.91;100.00;98506.50;5053518;28;20232;-73
2024/01/04 03:32:46;;;;;;;3.73;2.03;;;7.80;99.90;;;6.92;100.00;98492.97;5053156;28;20784;-73
2024/01/04 03:35:15;;;;;;;4.07;2.10;;;7.90;99.90;;;6.92;100.00;98513.44;5053287;28;20621;-73
2024/01/04 03:37:43;;;;;;;2.37;2.13;;;7.90;99.90;;;6.91;100.00;98520.63;5053423;28;20229;-73
2024/01/04 03:40:12;;;;;;;3.93;2.40;;;7.90;99.90;;;6.90;100.00;98516.31;5053063;28;20744;-73
2024/01/04 03:42:40;;;;;;;3.23;2.30;;;7.80;99.90;;;6.89;100.00;98508.50;5053249;28;20232;-73
2024/01/04 03:45:09;;;;;;;3.30;2.50;;;7.90;99.90;;;6.85;100.00;98518.69;5053309;28;20300;-73
2024/01/04 03:47:37;;;;;;;3.43;2.40;;;7.70;99.90;;;6.82;100.00;98520.91;5053147;28;20686;-73
2024/01/04 03:50:08;;;;;;;2.93;2.10;;;7.80;99.90;;;6.85;100.00;98534.66;5053278;28;20230;-73
2024/01/04 03:52:36;;;;;;;3.57;2.20;;;7.70;99.90;;;6.84;100.00;98541.00;5053484;28;20264;-73
2024/01/04 03:55:05;;;;;;;3.73;2.50;;;7.80;99.90;;;6.79;100.00;98542.56;5053101;28;20255;-73
2024/01/04 03:57:33;;;;;;;3.03;2.20;;;7.70;99.90;;;6.70;100.00;98549.88;5056935;28;20240;-73
2024/01/04 04:00:02;;;;;;;3.23;1.80;;;7.70;99.90;;;6.62;100.00;98556.13;5057142;28;20316;-73
2024/01/04 04:02:30;;;;;;;2.57;1.93;;;7.60;99.90;;;6.59;100.00;98560.97;5057184;28;20280;-73
2024/01/04 04:04:58;;;;;;;2.37;1.50;;;7.50;99.90;;;6.57;100.00;98563.84;5057158;28;20285;-73
2024/01/04 04:07:27;;;;;;;2.43;1.67;;;7.60;99.90;;;6.58;100.00;98554.84;5057094;28;20213;-72
2024/01/04 04:09:57;;;;;;;3.87;1.80;;;7.60;99.90;;;6.56;100.00;98575.47;5057103;28;20280;-73
2024/01/04 04:12:25;;;;;;;2.60;1.90;;;7.50;99.90;;;6.50;100.00;98589.53;5056990;28;20218;-73
2024/01/04 04:14:54;;;;;;;3.63;2.03;;;7.50;99.90;;;6.49;100.00;98587.03;5056989;28;20268;-73
2024/01/04 04:17:24;;;;;;;3.33;2.07;;;7.40;99.90;;;6.43;100.00;98583.31;5057033;28;20279;-73
2024/01/04 04:19:52;;;;;;;2.70;2.20;;;7.30;99.90;;;6.37;100.00;98593.88;5056882;28;20242;-72
2024/01/04 04:22:20;;;;;;;2.00;1.70;;;7.30;99.90;;;6.29;100.00;98602.75;5056818;28;20222;-72
2024/01/04 04:24:50;;;;;;;2.10;1.60;;;7.30;99.90;;;6.23;100.00;98608.81;5056532;28;20300;-73
2024/01/04 04:27:18;;;;;;;2.27;1.90;;;7.20;99.90;;;6.16;100.00;98621.19;5056744;28;20293;-73
2024/01/04 04:29:46;;;;;;;2.47;1.60;;;7.10;99.90;;;6.13;100.00;98618.88;5056437;28;20672;-73
2024/01/04 04:32:14;;;;;;;4.70;2.20;;;7.10;99.90;;;6.08;100.00;98623.91;5056566;28;20236;-73
2024/01/04 04:34:42;;;;;;;3.00;1.40;;;7.00;99.90;;;6.06;100.00;98617.97;5056113;28;20308;-73
2024/01/04 04:37:13;;;;;;;3.90;1.70;;;7.00;99.90;;;6.03;100.00;98628.94;5056200;28;20616;-73
2024/01/04 04:39:41;;;;;;;2.33;1.80;;;7.00;99.90;;;6.02;100.00;98637.94;5056593;28;20591;-73
2024/01/04 04:42:10;;;;;;;2.83;1.83;;;6.90;99.90;;;6.05;100.00;98641.06;5056424;28;20261;-73
2024/01/04 04:44:39;;;;;;;2.40;1.80;;;7.00;99.90;;;5.95;100.00;98642.34;5056495;28;20206;-73
2024/01/04 04:47:07;;;;;;;4.00;2.27;;;6.90;99.90;;;5.90;100.00;98655.31;5056372;28;20209;-73
2024/01/04 04:49:35;;;;;;;3.93;2.20;;;6.90;99.90;;;5.94;100.00;98664.56;5056310;28;20208;-73
2024/01/04 04:52:04;;;;;;;2.20;1.70;;;6.80;99.90;;;5.91;100.00;98667.59;5056283;28;20222;-73
2024/01/04 04:54:32;;;;;;;4.20;1.80;;;6.80;99.90;;;5.92;100.00;98666.59;5055935;28;20214;-73
2024/01/04 04:57:02;;;;;;;2.60;1.80;;;6.80;99.90;;;5.94;100.00;98673.38;5056273;28;20214;-73
2024/01/04 04:59:32;;;;;;;2.50;1.83;;;6.80;99.90;;;5.87;100.00;98679.56;5056098;28;20232;-73
2024/01/04 05:02:00;;;;;;;4.53;2.10;;;6.80;99.90;;;5.86;100.00;98680.56;5056120;28;20579;-73
2024/01/04 05:04:31;;;;;;;3.37;1.80;;;6.70;99.90;;;5.92;100.00;98690.50;5056108;28;20194;-73
2024/01/04 05:06:59;;;;;;;3.87;1.80;;;6.80;99.90;;;5.95;100.00;98685.66;5055709;28;20206;-73
2024/01/04 05:09:27;;;;;;;3.90;1.80;;;6.90;99.90;;;5.90;100.00;98689.84;5056003;28;20251;-73
2024/01/04 05:11:55;;;;;;;4.70;2.83;;;6.90;99.90;;;5.92;100.00;98709.09;5055855;28;20317;-73
2024/01/04 05:14:23;;;;;;;9.33;4.50;;;6.80;99.90;;;5.89;100.00;98718.22;5055851;28;20239;-73
2024/01/04 05:16:54;;;;;;;5.87;3.13;;;6.80;99.90;;;5.86;100.00;98723.06;5055624;28;20722;-73
2024/01/04 05:19:24;;;;;;;4.10;2.23;;;6.80;99.90;;;5.91;100.00;98726.84;5055803;28;20222;-73
2024/01/04 05:21:53;;;;;;;3.07;1.90;;;6.80;99.90;;;5.90;100.00;98713.75;5055690;28;20311;-73
2024/01/04 05:24:21;;;;;;;2.10;1.83;;;6.80;99.90;;;5.93;100.00;98724.00;5055681;28;20296;-73
2024/01/04 05:26:50;;;;;;;4.07;1.90;;;6.80;99.90;;;5.87;100.00;98730.03;5055309;28;20636;-73
2024/01/04 05:29:18;;;;;;;2.17;1.97;;;6.80;99.90;;;5.81;100.00;98736.03;5055556;28;20202;-73
2024/01/04 05:31:46;;;;;;;4.03;2.40;;;6.80;99.90;;;5.74;100.00;98741.25;5055458;28;20228;-73
2024/01/04 05:34:16;;;;;;;3.60;2.10;;;6.70;99.90;;;5.74;100.00;98751.84;5055297;28;20304;-73
2024/01/04 05:36:44;;;;;;;2.57;1.93;;;6.60;99.90;;;5.76;100.00;98754.31;5055349;28;20675;-73
2024/01/04 05:39:12;;;;;;;3.10;2.37;;;6.70;99.90;;;5.73;100.00;98762.63;5055425;28;20226;-73
2024/01/04 05:41:41;;;;;;;4.43;2.40;;;6.60;99.90;;;5.75;100.00;98760.66;5055311;28;20226;-73
2024/01/04 05:44:09;;;;;;;2.70;1.80;;;6.60;99.90;;;5.68;100.00;98767.69;5055425;28;20248;-73
2024/01/04 05:46:37;;;;;;;2.20;1.80;;;6.70;99.90;;;5.66;100.00;98772.31;5055497;28;20208;-73
2024/01/04 05:49:06;;;;;;;2.53;1.97;;;6.60;99.90;;;5.69;100.00;98777.28;5055249;28;20301;-74
2024/01/04 05:51:36;;;;;;;4.30;2.50;;;6.70;99.90;;;5.70;100.00;98781.59;5054805;28;20260;-74
2024/01/04 05:54:10;;;;;;;3.90;2.20;;;6.70;99.90;;;5.63;100.00;98782.31;5055200;28;20205;-74
2024/01/04 05:56:38;;;;;;;2.90;1.80;;;6.60;99.90;;;5.54;100.00;98780.72;5055221;28;20231;-74
2024/01/04 05:59:07;;;;;;;2.27;1.90;;;6.50;99.90;;;5.54;100.00;98787.84;5054986;28;20206;-74
2024/01/04 06:01:36;;;;;;;3.83;2.43;;;6.50;99.90;;;5.52;100.00;98789.81;5054903;28;20202;-74
2024/01/04 06:04:05;;;;;;;3.37;1.80;;;6.40;99.90;;;5.56;100.00;98794.63;5055500;28;20214;-74
2024/01/04 06:06:34;;;;;;;4.60;2.30;;;6.50;99.90;;;5.53;100.00;98800.28;5054740;28;20249;-74
2024/01/04 06:09:04;;;;;;;2.47;2.00;;;6.50;99.90;;;5.52;100.00;98803.94;5054848;28;20259;-74
2024/01/04 06:11:32;;;;;;;3.20;1.87;;;6.40;99.90;;;5.39;100.00;98806.34;5054770;28;20201;-74
2024/01/04 06:14:00;;;;;;;2.70;2.10;;;6.40;99.90;;;5.37;100.00;98808.34;5054665;28;20238;-75
2024/01/04 06:16:28;;;;;;;2.13;1.53;;;6.30;99.90;;;5.40;100.00;98823.91;5054684;28;20202;-74
2024/01/04 06:18:57;;;;;;;4.50;1.67;;;6.40;99.90;;;5.33;100.00;98820.31;5053526;28;20300;-74
2024/01/04 06:21:25;;;;;;;3.53;1.60;;;6.30;99.90;;;5.33;100.00;98852.16;5054429;28;20233;-75
2024/01/04 06:23:55;;;;;;;2.90;1.53;;;6.30;99.90;;;5.36;100.00;98846.50;5054633;28;20289;-74
2024/01/04 06:26:24;;;;;;;3.20;1.60;;;6.30;99.90;;;5.38;100.00;98848.94;5054530;28;20209;-74
2024/01/04 06:28:52;;;;;;;3.67;1.73;;;6.30;99.90;;;5.30;100.00;98865.75;5054491;28;20206;-74
2024/01/04 06:31:20;;;;;;;2.67;1.37;;;6.30;99.90;;;5.21;100.00;98866.78;5054036;28;20301;-74
2024/01/04 06:33:49;;;;;;;2.87;1.50;;;6.20;99.90;;;5.20;100.00;98874.91;5054166;28;20679;-72
2024/01/04 06:36:17;;;;;;;2.13;1.30;;;6.20;99.90;;;5.17;100.00;98870.78;5054400;28;20195;-72
2024/01/04 06:38:45;;;;;;;2.40;1.23;;;6.10;99.90;;;5.20;100.00;98878.41;5054249;28;20293;-72
2024/01/04 06:41:15;;;;;;;1.80;1.33;;;6.20;99.90;;;5.26;100.00;98895.44;5054253;28;20234;-73
2024/01/04 06:43:43;;;;;;;1.90;1.10;;;6.20;99.90;;;5.22;100.00;98887.00;5054278;28;20284;-72
2024/01/04 06:46:11;;;;;;;4.23;1.27;;;6.20;99.90;;;5.16;100.00;98898.31;5054164;28;20241;-72
2024/01/04 06:48:41;;;;;;;2.47;0.97;;;6.10;99.90;;;5.04;100.00;98913.75;5054125;28;20206;-72
2024/01/04 06:51:10;;;;;;;2.40;1.37;;;6.10;99.90;;;5.08;100.00;98914.22;5054165;28;20205;-73
2024/01/04 06:53:38;;;;;;;2.40;1.33;;;6.10;99.90;;;5.07;100.00;98928.47;5053977;28;20351;-73
2024/01/04 06:56:07;;;;;;;3.43;1.20;;;6.10;99.90;;;5.05;100.00;98925.19;5054001;28;20292;-73
2024/01/04 06:58:36;;;;;;;1.77;1.30;;;6.00;99.90;;;5.06;100.00;98929.50;5053647;28;20573;-73
2024/01/04 07:01:05;;;;;;;2.10;1.27;;;6.00;99.90;;;5.06;100.00;98940.13;5053857;28;20233;-73
2024/01/04 07:03:33;;;;;;;2.33;1.37;;;6.00;99.90;;;5.02;100.00;98946.75;5053492;28;20641;-73
2024/01/04 07:06:03;;;;;;;2.17;1.13;;;6.00;99.90;;;4.91;100.00;98958.53;5053519;28;20252;-73
2024/01/04 07:08:31;;;;;;;2.23;1.40;;;5.80;99.90;;;4.85;100.00;98961.03;5053885;28;20260;-73
2024/01/04 07:10:59;;;;;;;3.23;2.00;;;5.90;99.90;;;4.87;100.00;98974.94;5053803;28;20230;-73
2024/01/04 07:13:27;;;;;;;2.33;1.23;;;5.80;99.90;;;4.85;100.00;98974.28;5053506;28;20240;-73
2024/01/04 07:15:57;;;;;;;3.50;1.30;;;5.80;99.90;;;4.73;100.00;98979.06;5053698;28;20301;-73
2024/01/04 07:18:25;;;;;;;6.20;1.40;;;5.70;99.90;;;4.73;100.00;98970.28;5053389;28;20216;-73
2024/01/04 07:20:53;;;;;;;3.07;1.27;;;5.70;99.90;;;4.69;100.00;98969.81;5053304;28;20321;-73
2024/01/04 07:23:21;;;;;;;3.20;1.30;;;5.70;99.90;;;4.65;100.00;98987.03;5053550;28;20222;-73
2024/01/04 07:25:51;;;;;;;2.87;1.20;;;5.70;99.90;;;4.71;100.00;98994.34;5053254;28;20613;-73
2024/01/04 07:28:19;;;;;;;5.60;2.67;;;5.70;99.90;;;4.67;100.00;98990.34;5053566;28;20640;-72
2024/01/04 07:30:51;;;;;;;2.73;1.77;;;5.70;99.90;;;4.69;100.00;98998.16;5053364;28;20230;-72
2024/01/04 07:33:26;;;;;;;4.37;1.83;;;5.70;99.90;;;4.72;100.00;98992.50;5053576;28;20236;-72
2024/01/04 07:35:54;;;;;;;2.27;1.20;;;5.70;99.90;;;4.72;100.00;99013.72;5053529;28;20240;-72
2024/01/04 07:38:22;;;;;;;2.77;1.27;;;5.70;99.90;;;4.64;100.00;99011.06;5053428;28;20248;-72
2024/01/04 07:40:50;;;;;;;1.20;1.10;;;5.70;99.90;;;4.67;100.00;99016.84;5053389;28;20257;-72
2024/01/04 07:43:20;;;;;;;1.40;1.30;;;5.70;99.90;;;4.59;100.00;99014.19;5053329;28;20226;-72
2024/01/04 07:45:48;;;;;;;1.50;1.20;;;5.60;99.90;;;4.63;100.00;99009.38;5053449;28;20206;-73
2024/01/04 07:48:16;;;;;;;1.73;1.30;;;5.70;99.90;;;4.47;100.00;99032.25;5053367;28;20248;-73
2024/01/04 07:50:46;;;;;;;2.50;1.50;;;5.50;99.90;;;4.47;100.00;99036.72;5053321;28;20275;-73
2024/01/04 07:53:14;;;;;;;2.23;1.30;;;5.50;99.90;;;4.54;100.00;99041.19;5053292;28;20284;-73
2024/01/04 07:55:42;;;;;;;4.17;1.40;;;5.60;99.90;;;4.53;100.00;99042.19;5053369;28;20288;-73
2024/01/04 07:58:10;;;;;;;3.03;1.63;;;5.50;99.90;;;4.57;100.00;99054.13;5053222;28;20240;-73
2024/01/04 08:00:38;;;;;;;3.87;1.77;;;5.60;99.90;;;4.55;100.00;99060.59;5053136;28;20308;-73
2024/01/04 08:03:07;;;;;;;2.17;1.57;;;5.60;99.90;;;4.59;100.00;99070.69;5053140;28;20312;-73
2024/01/04 08:05:35;;;;;;;1.97;1.40;;;5.60;99.90;;;4.56;100.00;99078.13;5052939;28;20214;-73
2024/01/04 08:08:06;;;;;;;2.63;1.50;;;5.60;99.90;;;4.56;100.00;99089.56;5052891;28;20206;-73
2024/01/04 08:10:34;;;;;;;2.03;1.40;;;5.50;99.90;;;4.53;100.00;99087.25;5053163;28;20190;-73
2024/01/04 08:13:02;;;;;;;1.63;1.40;;;5.60;99.90;;;4.40;100.00;99100.13;5053128;28;20313;-73
2024/01/04 08:15:33;;;;;;;2.53;1.43;;;5.50;99.90;;;4.46;100.00;99104.78;5053106;28;20245;-73
2024/01/04 08:18:02;;;;;;;4.93;1.73;;;5.50;99.90;;;4.37;100.00;99105.75;5053076;28;20187;-73
2024/01/04 08:20:34;;;;;;;2.20;1.37;;;5.40;99.90;;;4.33;100.00;99115.00;5052747;28;20534;-73
2024/01/04 08:23:04;;;;;;;1.30;1.20;;;5.30;99.90;;;4.37;100.00;99113.69;5052907;28;20226;-73
2024/01/04 08:25:33;;;;;;;2.10;1.30;;;5.30;99.90;;;4.35;100.00;99128.09;5053052;28;20216;-73
2024/01/04 08:28:01;;;;;;;1.30;1.20;;;5.30;99.90;;;4.40;100.00;99126.63;5052748;28;20668;-73
2024/01/04 08:30:29;;;;;;;2.90;1.57;;;5.40;99.90;;;4.39;100.00;99134.72;5052967;28;20202;-71
2024/01/04 08:32:58;;;;;;;3.43;1.80;;;5.40;99.90;;;4.27;100.00;99141.31;5052898;28;20230;-75
2024/01/04 08:35:26;;;;;;;1.50;1.40;;;5.30;99.90;;;4.34;100.00;99147.63;5052719;28;20590;-73
2024/01/04 08:37:54;;;;;;;2.03;1.83;;;5.30;99.90;;;4.33;100.00;99157.38;5052826;28;20256;-74
2024/01/04 08:40:24;;;;;;;1.77;1.60;;;5.30;99.90;;;4.30;100.00;99157.72;5052892;28;20260;-74
2024/01/04 08:42:52;;;;;;;2.00;1.80;;;5.30;99.90;;;4.27;100.00;99155.38;5054959;28;20320;-73
2024/01/04 08:45:20;;;;;;;2.30;2.00;;;5.30;99.90;;;4.25;100.00;99157.34;5056439;28;20270;-72
2024/01/04 08:47:49;;;;;;;4.50;2.70;;;5.30;99.90;;;4.26;100.00;99160.81;5056158;28;20206;-73
2024/01/04 08:50:17;;;;;;;3.10;2.73;;;5.30;99.90;;;4.13;100.00;99149.84;5056439;28;20218;-73
2024/01/04 08:52:45;;;;;;;3.10;2.80;;;5.10;99.90;;;4.11;100.00;99155.28;5056246;28;20280;-73
2024/01/04 08:55:14;;;;;;;3.57;2.97;;;5.20;99.90;;;4.08;100.00;99161.72;5056247;28;20297;-74
2024/01/04 08:57:44;;;;;;;4.90;3.20;;;5.10;99.90;;;4.09;100.00;99163.41;5055956;28;20702;-73
2024/01/04 09:00:14;;;;;;;4.73;3.23;;;5.10;99.90;;;4.06;100.00;99173.47;5056263;28;20242;-73
2024/01/04 09:02:45;;;;;;;3.13;2.70;;;5.10;99.90;;;4.13;100.00;99171.03;5055773;28;20699;-74
2024/01/04 09:05:14;;;;;;;4.30;3.00;;;5.20;99.90;;;4.18;100.00;99174.84;5056190;28;20190;-74
2024/01/04 09:07:42;;;;;;;3.10;2.80;;;5.20;99.90;;;4.21;100.00;99179.88;5055709;28;20703;-74
2024/01/04 09:10:10;;;;;;;4.77;2.80;;;5.20;99.90;;;4.18;100.00;99188.09;5056140;28;20272;-74
2024/01/04 09:12:39;;;;;;;3.37;3.00;;;5.20;99.90;;;4.18;100.00;99190.75;5055819;28;20313;-74
2024/01/04 09:15:11;;;;;;;4.83;3.33;;;5.30;99.90;;;4.13;100.00;99200.16;5055941;28;20197;-74
2024/01/04 09:17:42;;;;;;;4.13;3.07;;;5.20;99.90;;;4.09;100.00;99202.28;5055864;28;20229;-73
2024/01/04 09:20:13;;;;;;;3.53;3.07;;;5.10;99.90;;;4.11;100.00;99210.09;5055450;28;20187;-73
2024/01/04 09:22:41;;;;;;;4.70;3.40;;;5.10;99.90;;;4.13;100.00;99219.53;5056230;28;20233;-74
2024/01/04 09:25:09;;;;;;;4.10;3.37;;;5.20;99.90;;;4.12;100.00;99225.81;5055671;28;20206;-74
2024/01/04 09:27:38;;;;;;;6.30;3.40;;;5.10;99.90;;;4.10;100.00;99235.75;5055806;28;20296;-74
2024/01/04 09:30:07;;;;;;;4.57;3.70;;;5.20;99.90;;;4.15;100.00;99235.25;5055669;28;20213;-74
2024/01/04 09:32:39;;;;;;;4.90;3.10;;;5.10;99.90;;;4.20;100.00;99246.22;5055357;28;20758;-73
2024/01/04 09:35:08;;;;;;;3.83;3.40;;;5.20;99.90;;;4.14;100.00;99255.63;5055389;28;20218;-73
2024/01/04 09:37:36;;;;;;;4.27;3.30;;;5.10;99.90;;;4.18;100.00;99259.63;5055137;28;20667;-73
2024/01/04 09:40:06;;;;;;;4.37;3.50;;;5.20;99.90;;;4.15;100.00;99265.22;5055528;28;20260;-74
2024/01/04 09:42:40;;;;;;;3.60;3.23;;;5.10;99.90;;;4.19;100.00;99268.41;5055312;28;20234;-74
2024/01/04 09:45:11;;;;;;;3.93;3.10;;;5.20;99.90;;;4.21;100.00;99280.53;5055408;28;20222;-74
2024/01/04 09:47:43;;;;;;;4.10;3.13;;;5.20;99.90;;;4.23;100.00;99283.84;5055011;28;20713;-73
2024/01/04 09:50:14;;;;;;;3.97;2.50;;;5.30;99.90;;;4.26;100.00;99285.34;5055292;28;20205;-74
2024/01/04 09:52:45;;;;;;;2.70;2.17;;;5.30;99.90;;;4.25;100.00;99284.50;5055245;28;20229;-73
2024/01/04 09:55:13;;;;;;;2.57;2.17;;;5.30;99.90;;;4.26;100.00;99290.63;5055511;28;20198;-74
2024/01/04 09:57:42;;;;;;;2.20;2.00;;;5.30;99.90;;;4.25;100.00;99297.75;5055093;28;20252;-72
2024/01/04 10:00:12;;;;;;;3.40;1.87;;;5.20;99.90;;;4.23;100.00;99294.44;5055058;28;20264;-72
2024/01/04 10:02:43;;;;;;;3.77;2.20;;;5.20;99.90;;;4.24;100.00;99300.56;5054990;28;20234;-72
2024/01/04 10:05:16;;;;;;;2.40;1.87;;;5.20;99.90;;;4.21;100.00;99312.31;5055154;28;20369;-73
2024/01/04 10:07:54;;;;;;;4.03;1.83;;;5.20;99.90;;;4.21;100.00;99322.91;5055018;28;20187;-72
2024/01/04 10:10:31;;;;;;;2.37;1.50;;;5.20;99.90;;;4.20;100.00;99329.19;5054982;28;20268;-72
2024/01/04 10:13:02;;;;;;;4.33;1.73;;;5.20;99.90;;;4.16;100.00;99334.94;5054778;28;20263;-72
2024/01/04 10:15:31;;;;;;;2.13;1.67;;;5.30;99.90;;;4.17;100.00;99342.72;5054863;28;20190;-72
2024/01/04 10:18:02;;;;;;;2.97;1.70;;;5.20;99.90;;;4.17;100.00;99348.03;5054655;28;20217;-72
2024/01/04 10:20:30;;;;;;;2.33;1.63;;;5.10;99.90;;;4.11;100.00;99348.63;5054744;28;20190;-72
2024/01/04 10:22:58;;;;;;;1.93;1.40;;;5.20;99.90;;;4.09;100.00;99342.66;5054210;28;20686;-72
2024/01/04 10:25:27;;;;;;;2.07;1.40;;;5.10;99.90;;;4.12;100.00;99358.25;5054595;28;20206;-71
2024/01/04 10:27:56;;;;;;;1.90;1.37;;;5.10;99.90;;;4.05;100.00;99354.53;5054191;28;20735;-72
2024/01/04 10:30:25;;;;;;;1.63;1.20;;;5.10;99.90;;;4.09;100.00;99359.38;5054525;28;20206;-68
2024/01/04 10:32:54;;;;;;;2.33;1.40;;;5.10;99.90;;;4.11;100.00;99356.56;5054280;28;20309;-68